METAR Data
IDs: Format: Raw Decoded Include TAF

Data at: 0052 UTC 20 Jul 2019

METAR for:KIIB (Independence Muni, IA, US)
Text:KIIB 200035Z AUTO 19007KT 10SM CLR 33/27 A2971 RMK AO2 T03250272
Temperature: 32.5°C ( 90°F)
Dewpoint: 27.2°C ( 81°F) [RH = 74%]
Pressure (altimeter):29.71 inches Hg (1006.2 mb)
Winds:from the S (190 degrees) at 8 MPH (7 knots; 3.6 m/s)
Visibility:10 or more sm (16+ km)
Ceiling:at least 12,000 feet AGL
Clouds:sky clear below 12,000 feet AGL
QC Flag:automated observation with no human augmentation